Atb Corpus Christi — WDE5099 — position and weather

sailwx.info

Track history (hours):
 
Tides and Currents Weather Stations Pressure Air Temp Water Temp Dewpoint Dewpoint Depression Visibility Wind Speed Wind Dir Waves Ship Positions

Atb Corpus Christi

Owner: US Shipping Corp, EDISON, NJ. More information available from US FCC via Universal Licensing System and Coast Guard Vessel Documentation Center.

Last reported at 2018-Apr-20 14:30 UTC. Time now 2018-Apr-20 14:43 UTC.
Position N 25°60' W 080°00'.

Length 184 m; draft 6.7 m.

Type: Towing. MMSI: 367362010.

Date/timePositionNaut miles runAvg speedWind from/ knotsBaromVisibWave heightAir tempDewpointWater temp
2018-Apr-20 14:30N 25°60' W 080°00'5 9.9
2018-Apr-20 14:00N 26°05' W 080°02'4 9.1
2018-Apr-20 13:30N 26°06' W 080°07'0 0.9
2018-Apr-20 12:59N 26°06' W 080°07'0 0.0
2018-Apr-20 12:29N 26°06' W 080°07'0 0.0
2018-Apr-20 11:59N 26°06' W 080°07'0 0.0
2018-Apr-20 11:29N 26°06' W 080°07'0 0.0
2018-Apr-20 10:59N 26°06' W 080°07'0 0.0
2018-Apr-20 10:29N 26°06' W 080°07'0 0.0
2018-Apr-20 09:59N 26°06' W 080°07'0 0.0
2018-Apr-20 09:29N 26°06' W 080°07'0 0.0
2018-Apr-20 08:59N 26°06' W 080°07'0 0.0
2018-Apr-20 08:29N 26°06' W 080°07'0 0.0
2018-Apr-20 07:59N 26°06' W 080°07'0 0.0
2018-Apr-20 07:29N 26°06' W 080°07'0 0.0
2018-Apr-20 06:59N 26°06' W 080°07'0 0.0
2018-Apr-20 06:29N 26°06' W 080°07'0 0.0
2018-Apr-20 05:56N 26°06' W 080°07'0 0.0
2018-Apr-20 05:29N 26°06' W 080°07'0 0.0
2018-Apr-20 04:59N 26°06' W 080°07'0 0.0
2018-Apr-20 04:29N 26°06' W 080°07'0 0.0
2018-Apr-20 03:59N 26°06' W 080°07'0 0.0
2018-Apr-20 03:26N 26°06' W 080°07'0 0.0
2018-Apr-20 02:59N 26°06' W 080°07'0 0.0
2018-Apr-20 02:29N 26°06' W 080°07'0 0.0
2018-Apr-20 01:59N 26°06' W 080°07'0 0.0
2018-Apr-20 01:29N 26°06' W 080°07'0 0.0
2018-Apr-20 00:59N 26°06' W 080°07'0 0.0
2018-Apr-20 00:29N 26°06' W 080°07'0 0.0
2018-Apr-19 23:59N 26°06' W 080°07'0 0.0
2018-Apr-19 23:29N 26°06' W 080°07'0 0.0
2018-Apr-19 22:59N 26°06' W 080°07'0 0.0
2018-Apr-19 22:29N 26°06' W 080°07'0 0.0
2018-Apr-19 21:59N 26°06' W 080°07'0 0.0
2018-Apr-19 21:29N 26°06' W 080°07'0 0.0
2018-Apr-19 20:59N 26°06' W 080°07'0 0.0
2018-Apr-19 20:29N 26°06' W 080°07'0 0.0
2018-Apr-19 19:59N 26°06' W 080°07'0 0.0
2018-Apr-19 19:29N 26°06' W 080°07'0 0.0
2018-Apr-19 18:59N 26°06' W 080°07'0 0.0
2018-Apr-19 18:29N 26°06' W 080°07'0 0.0
2018-Apr-19 17:59N 26°06' W 080°07'0 0.0
2018-Apr-19 17:29N 26°06' W 080°07'0 0.0
2018-Apr-19 16:59N 26°06' W 080°07'0 0.0
2018-Apr-19 16:29N 26°06' W 080°07'0 0.0
2018-Apr-19 15:59N 26°06' W 080°07'0 0.0
2018-Apr-19 15:29N 26°06' W 080°07'0 0.0
2018-Apr-19 14:59N 26°06' W 080°07'0 0.0
2018-Apr-19 14:29N 26°06' W 080°07'0 0.0
2018-Apr-19 13:59N 26°06' W 080°07'0 0.0
2018-Apr-19 13:29N 26°06' W 080°07'0 0.0
2018-Apr-19 12:59N 26°06' W 080°07'0 0.0
2018-Apr-19 12:29N 26°06' W 080°07'0 0.0
2018-Apr-19 11:59N 26°06' W 080°07'0 0.0
2018-Apr-19 11:29N 26°06' W 080°07'0 0.0
2018-Apr-19 10:59N 26°06' W 080°07'0 0.0
2018-Apr-19 10:29N 26°06' W 080°07'0 0.0
2018-Apr-19 09:59N 26°06' W 080°07'0 0.0
2018-Apr-19 09:29N 26°06' W 080°07'0 0.0
2018-Apr-19 08:59N 26°06' W 080°07'0 0.0
2018-Apr-19 08:29N 26°06' W 080°07'0 0.0
2018-Apr-19 07:59N 26°06' W 080°07'0 0.0
2018-Apr-19 07:29N 26°06' W 080°07'0 0.0
2018-Apr-19 06:59N 26°06' W 080°07'0 0.0
2018-Apr-19 06:29N 26°06' W 080°07'0 0.0
2018-Apr-19 05:59N 26°06' W 080°07'0 0.0
2018-Apr-19 05:29N 26°06' W 080°07'0 0.0
2018-Apr-19 05:00N 26°06' W 080°07'0 0.5
2018-Apr-19 04:30N 26°06' W 080°07'3 5.9
2018-Apr-19 04:00N 26°06' W 080°04'1 2.0
2018-Apr-19 03:30N 26°07' W 080°03'0 0.8
2018-Apr-19 03:00N 26°08' W 080°04'1 2.4
2018-Apr-19 02:30N 26°08' W 080°05'0 0.0
2018-Apr-19 01:59N 26°08' W 080°05'0 0.0
2018-Apr-19 01:29N 26°08' W 080°05'0 0.1
2018-Apr-19 00:59N 26°08' W 080°05'0 0.0
2018-Apr-19 00:29N 26°08' W 080°05'0 0.0
2018-Apr-18 23:59N 26°08' W 080°05'0 0.1
2018-Apr-18 23:29N 26°08' W 080°04'0 0.0
2018-Apr-18 22:59N 26°08' W 080°04'0 0.1
2018-Apr-18 22:20N 26°08' W 080°05'0 0.2
2018-Apr-18 21:59N 26°08' W 080°05'0 0.1
2018-Apr-18 21:26N 26°08' W 080°04'0 0.0
2018-Apr-18 20:53N 26°08' W 080°04'0 0.0
2018-Apr-18 20:20N 26°08' W 080°04'0 0.0
2018-Apr-18 19:59N 26°08' W 080°04'0 0.0
2018-Apr-18 19:29N 26°08' W 080°04'0 0.1
2018-Apr-18 18:59N 26°08' W 080°05'0 0.0
2018-Apr-18 18:29N 26°08' W 080°05'0 0.0
2018-Apr-18 17:56N 26°08' W 080°05'0 0.0
2018-Apr-18 17:23N 26°08' W 080°05'0 0.0
2018-Apr-18 16:56N 26°08' W 080°05'0 0.0
2018-Apr-18 16:26N 26°08' W 080°05'0 0.0
2018-Apr-18 15:56N 26°08' W 080°05'0 0.0
2018-Apr-18 15:26N 26°08' W 080°05'0 0.0
2018-Apr-18 14:56N 26°08' W 080°04'0 0.0
2018-Apr-18 14:23N 26°08' W 080°04'0 0.0
2018-Apr-18 13:59N 26°08' W 080°04'0 0.0
2018-Apr-18 13:26N 26°08' W 080°04'0 0.0
2018-Apr-18 12:59N 26°08' W 080°04'0 0.0
2018-Apr-18 11:32N 26°08' W 080°04'0 0.0
2018-Apr-18 11:17N 26°08' W 080°04'0 0.0
2018-Apr-18 10:59N 26°08' W 080°04'0 0.0
2018-Apr-18 10:29N 26°08' W 080°04'0 0.0
2018-Apr-18 09:59N 26°08' W 080°04'0 0.0
2018-Apr-18 09:20N 26°08' W 080°04'0 0.0
2018-Apr-18 08:47N 26°08' W 080°04'0 0.0
2018-Apr-18 08:23N 26°08' W 080°04'0 0.0
2018-Apr-18 07:47N 26°08' W 080°04'0 0.0
2018-Apr-18 07:20N 26°08' W 080°04'0 0.0
2018-Apr-18 06:59N 26°08' W 080°04'0 0.0
2018-Apr-18 06:23N 26°08' W 080°04'0 0.0
2018-Apr-18 05:53N 26°08' W 080°04'0 0.0
2018-Apr-18 04:50N 26°08' W 080°04'0 0.2
2018-Apr-18 04:23N 26°08' W 080°04'0 0.2
2018-Apr-18 03:56N 26°08' W 080°04'0 0.1
2018-Apr-18 03:26N 26°08' W 080°04'0 0.0
2018-Apr-18 02:56N 26°08' W 080°04'0 0.0
2018-Apr-18 02:29N 26°08' W 080°04'0 0.0
2018-Apr-18 01:59N 26°08' W 080°04'0 0.0
2018-Apr-18 01:29N 26°08' W 080°04'0 0.0
2018-Apr-18 00:59N 26°08' W 080°04'0 0.0
2018-Apr-18 00:29N 26°08' W 080°04'0 0.0
2018-Apr-17 23:59N 26°08' W 080°04'0 0.0
2018-Apr-17 23:29N 26°08' W 080°04'0 0.0
2018-Apr-17 22:59N 26°08' W 080°04'0 0.0
2018-Apr-17 22:29N 26°08' W 080°04'0 0.0
2018-Apr-17 21:59N 26°08' W 080°04'0 0.0
2018-Apr-17 21:17N 26°08' W 080°04'0 0.0
2018-Apr-17 20:59N 26°08' W 080°04'0 0.0
2018-Apr-17 20:29N 26°08' W 080°04'0 0.0
2018-Apr-17 19:59N 26°08' W 080°05'0 0.0
2018-Apr-17 19:29N 26°08' W 080°05'0 0.0
2018-Apr-17 18:54N 26°08' W 080°04'0 0.1
2018-Apr-17 18:30N 26°08' W 080°04'1 2.5
2018-Apr-17 18:00N 26°08' W 080°03'611.3
2018-Apr-17 17:30N 26°04' W 079°59'713.1
2018-Apr-17 17:00N 25°57' W 079°60'714.6
2018-Apr-17 16:30N 25°50' W 080°00'714.8
2018-Apr-17 16:00N 25°43' W 080°00'714.9
2018-Apr-17 15:31N 25°35' W 079°60'714.9
2018-Apr-17 15:00N 25°28' W 079°60'714.4
2018-Apr-17 14:29N 25°20' W 080°01'  
2018-Apr-14 12:42N 29°11' W 093°41'811.8
2018-Apr-14 12:04N 29°18' W 093°40'612.0
2018-Apr-14 11:36N 29°24' W 093°40'212.0
2018-Apr-14 11:28N 29°26' W 093°40'510.9
2018-Apr-14 11:00N 29°30' W 093°42'510.5
2018-Apr-14 10:30N 29°35' W 093°45'2 4.3
2018-Apr-14 10:00N 29°35' W 093°48'510.8
2018-Apr-14 09:30N 29°40' W 093°50'5 9.4
2018-Apr-14 09:00N 29°44' W 093°53'4 8.6
2018-Apr-14 08:30N 29°47' W 093°57'3 6.7
2018-Apr-14 08:00N 29°50' W 093°58'1 1.6
2018-Apr-14 07:30N 29°51' W 093°58'0 0.0
2018-Apr-14 07:00N 29°51' W 093°58'0 0.0
2018-Apr-14 06:30N 29°51' W 093°58'0 0.0
2018-Apr-14 06:00N 29°51' W 093°58'0 0.0
2018-Apr-14 05:30N 29°51' W 093°58'0 0.0
2018-Apr-14 05:00N 29°51' W 093°58'0 0.0
2018-Apr-14 04:30N 29°51' W 093°58'0 0.0
2018-Apr-14 04:00N 29°51' W 093°58'0 0.0
2018-Apr-14 03:27N 29°51' W 093°58'0 0.0
2018-Apr-14 02:59N 29°51' W 093°58'0 0.0
2018-Apr-14 02:29N 29°51' W 093°58'0 0.0
2018-Apr-14 01:59N 29°51' W 093°58'0 0.0
2018-Apr-14 01:29N 29°51' W 093°58'0 0.0
2018-Apr-14 00:59N 29°51' W 093°58'0 0.0
2018-Apr-14 00:29N 29°51' W 093°58'0 0.0
2018-Apr-13 23:59N 29°51' W 093°58'0 0.0
2018-Apr-13 23:29N 29°51' W 093°58'0 0.0
2018-Apr-13 22:59N 29°51' W 093°58'0 0.0
2018-Apr-13 22:29N 29°51' W 093°58'0 0.0
2018-Apr-13 21:59N 29°51' W 093°58'0 0.0
2018-Apr-13 21:29N 29°51' W 093°58'0 0.0
2018-Apr-13 20:59N 29°51' W 093°58'0 0.0
2018-Apr-13 20:29N 29°51' W 093°58'0 0.0
2018-Apr-13 19:59N 29°51' W 093°58'0 0.0
2018-Apr-13 19:29N 29°51' W 093°58'0 0.0
2018-Apr-13 18:59N 29°51' W 093°58'0 0.0
2018-Apr-13 18:29N 29°51' W 093°58'0 0.0
2018-Apr-13 17:59N 29°51' W 093°58'0 0.0
2018-Apr-13 17:29N 29°51' W 093°58'0 0.0
2018-Apr-13 16:59N 29°51' W 093°58'0 0.0
2018-Apr-13 16:29N 29°51' W 093°58'0 0.0
2018-Apr-13 15:59N 29°51' W 093°58'0 0.0
2018-Apr-13 15:29N 29°51' W 093°58'0 0.0
2018-Apr-13 14:59N 29°51' W 093°58'0 0.0
2018-Apr-13 14:29N 29°51' W 093°58'0 0.0
2018-Apr-13 13:59N 29°51' W 093°58'0 0.0
2018-Apr-13 13:29N 29°51' W 093°58'0 0.0
2018-Apr-13 12:59N 29°51' W 093°58'0 0.0
2018-Apr-13 12:29N 29°51' W 093°58'0 0.0
2018-Apr-13 11:59N 29°51' W 093°58'0 0.0
2018-Apr-13 11:29N 29°51' W 093°58'0 0.0
2018-Apr-13 10:59N 29°51' W 093°58'0 0.0
2018-Apr-13 10:29N 29°51' W 093°58'0 0.0
2018-Apr-13 09:59N 29°51' W 093°58'0 0.0
2018-Apr-13 09:29N 29°51' W 093°58'0 0.0
2018-Apr-13 08:59N 29°51' W 093°58'0 0.0
2018-Apr-13 08:29N 29°51' W 093°58'0 0.0
2018-Apr-13 07:59N 29°51' W 093°58'0 0.0
2018-Apr-13 07:29N 29°51' W 093°58'0 0.0
2018-Apr-13 06:56N 29°51' W 093°58'0 0.0
2018-Apr-13 06:29N 29°51' W 093°58'0 0.0
2018-Apr-13 05:59N 29°51' W 093°58'0 0.0
2018-Apr-13 05:29N 29°51' W 093°58'0 0.0
2018-Apr-13 04:59N 29°51' W 093°58'0 0.0
2018-Apr-13 04:29N 29°51' W 093°58'0 0.0
2018-Apr-13 03:59N 29°51' W 093°58'0 0.0
2018-Apr-13 03:29N 29°51' W 093°58'0 0.0
2018-Apr-13 02:59N 29°51' W 093°58'0 0.0
2018-Apr-13 02:30N 29°51' W 093°58'1 1.4
2018-Apr-13 02:00N 29°50' W 093°58'4 7.8
2018-Apr-13 01:30N 29°47' W 093°56'5 9.1
2018-Apr-13 01:00N 29°44' W 093°52'5 9.8
2018-Apr-13 00:30N 29°39' W 093°50'510.0
2018-Apr-13 00:01N 29°35' W 093°47'4 7.7
2018-Apr-12 23:30N 29°34' W 093°43'3 5.8
2018-Apr-12 23:00N 29°32' W 093°45'611.3
2018-Apr-12 22:30N 29°30' W 093°51'611.3
2018-Apr-12 22:00N 29°29' W 093°57'611.2
2018-Apr-12 21:30N 29°25' W 094°02'611.4
2018-Apr-12 21:00N 29°21' W 094°07'611.4
2018-Apr-12 20:30N 29°17' W 094°12'611.6
2018-Apr-12 20:00N 29°13' W 094°17'611.7
2018-Apr-12 19:27N 29°10' W 094°23'1010.7
2018-Apr-12 18:32N 29°14' W 094°33'311.9
2018-Apr-12 18:19N 29°15' W 094°35'410.9
2018-Apr-12 17:59N 29°18' W 094°37'611.2
2018-Apr-12 17:28N 29°21' W 094°43'1 1.1
2018-Apr-12 16:13N 29°21' W 094°45'0 0.1
2018-Apr-12 15:49N 29°21' W 094°45'0 0.0
2018-Apr-12 15:25N 29°21' W 094°45'0 0.0
2018-Apr-12 14:58N 29°21' W 094°45'0 0.0
2018-Apr-12 12:37N 29°21' W 094°45'0 0.0
2018-Apr-12 12:28N 29°21' W 094°45'0 0.0
2018-Apr-12 10:55N 29°21' W 094°45'0 0.0
2018-Apr-12 09:46N 29°21' W 094°45'0 0.0
2018-Apr-12 09:10N 29°21' W 094°45'0 0.0
2018-Apr-12 08:49N 29°21' W 094°45'0 0.0
2018-Apr-12 08:30N 29°21' W 094°45'0 0.2
2018-Apr-12 08:00N 29°21' W 094°45'0 0.2
2018-Apr-12 07:28N 29°21' W 094°45'0 0.2
2018-Apr-12 07:00N 29°21' W 094°45'2 4.6
2018-Apr-12 06:30N 29°22' W 094°48'5 9.8
2018-Apr-12 06:00N 29°26' W 094°50'611.3
2018-Apr-12 05:31N 29°31' W 094°53'611.3
2018-Apr-12 05:00N 29°36' W 094°57'611.2
2018-Apr-12 04:30N 29°41' W 094°59'4 8.4
2018-Apr-12 04:00N 29°44' W 095°02'3 6.6
2018-Apr-12 03:30N 29°45' W 095°06'3 6.6
2018-Apr-12 03:00N 29°44' W 095°09'3 5.4
2018-Apr-12 02:28N 29°44' W 095°13'2 5.1
2018-Apr-12 02:00N 29°44' W 095°15'2 3.6
2018-Apr-12 01:30N 29°45' W 095°17'0 0.0
2018-Apr-12 01:00N 29°45' W 095°17'0 0.0
2018-Apr-12 00:27N 29°45' W 095°17'0 0.0
2018-Apr-11 23:54N 29°45' W 095°17'0 0.0
2018-Apr-11 23:21N 29°45' W 095°17'0 0.0
2018-Apr-11 22:48N 29°45' W 095°17'0 0.0
2018-Apr-11 22:15N 29°45' W 095°17'0 0.0
2018-Apr-11 22:00N 29°45' W 095°17'0 0.0
2018-Apr-11 21:27N 29°45' W 095°17'0 0.0
2018-Apr-11 21:00N 29°45' W 095°17'0 0.0
2018-Apr-11 20:30N 29°45' W 095°17'0 0.0
2018-Apr-11 19:57N 29°45' W 095°17'0 0.0
2018-Apr-11 19:30N 29°45' W 095°17'0 0.0
2018-Apr-11 18:57N 29°45' W 095°17'0 0.0
2018-Apr-11 18:27N 29°45' W 095°17'0 0.0
2018-Apr-11 18:00N 29°45' W 095°17'0 0.0
2018-Apr-11 17:30N 29°45' W 095°17'0 0.0
2018-Apr-11 17:00N 29°45' W 095°17'0 0.0
2018-Apr-11 16:30N 29°45' W 095°17'0 0.0
2018-Apr-11 15:57N 29°45' W 095°17'0 0.0
2018-Apr-11 15:30N 29°45' W 095°17'0 0.0
2018-Apr-11 14:57N 29°45' W 095°17'0 0.0
2018-Apr-11 14:12N 29°45' W 095°17'0 0.0
2018-Apr-11 13:54N 29°45' W 095°17'0 0.0
2018-Apr-11 13:27N 29°45' W 095°17'0 0.0
2018-Apr-11 13:00N 29°45' W 095°17'0 0.0
2018-Apr-11 12:30N 29°45' W 095°17'0 0.0
2018-Apr-11 10:18N 29°45' W 095°17'0 0.0
2018-Apr-11 09:45N 29°45' W 095°17'0 0.0
2018-Apr-11 09:30N 29°45' W 095°17'0 0.0
2018-Apr-11 09:00N 29°45' W 095°17'0 0.0
2018-Apr-11 08:15N 29°45' W 095°17'0 0.0
2018-Apr-11 07:57N 29°45' W 095°17'0 0.0
2018-Apr-11 07:18N 29°45' W 095°17'0 0.0
2018-Apr-11 07:00N 29°45' W 095°17'0 0.0
2018-Apr-11 06:24N 29°45' W 095°17'0 0.0
2018-Apr-11 06:00N 29°45' W 095°17'0 0.0
2018-Apr-11 04:39N 29°45' W 095°17'0 0.0
2018-Apr-11 04:24N 29°45' W 095°17'0 0.0
2018-Apr-11 03:51N 29°45' W 095°17'0 0.0
2018-Apr-11 03:21N 29°45' W 095°17'0 0.0
2018-Apr-11 02:57N 29°45' W 095°17'0 0.0
2018-Apr-11 02:27N 29°45' W 095°17'0 0.0
2018-Apr-11 01:15N 29°45' W 095°17'0 0.0
2018-Apr-11 00:45N 29°45' W 095°17'0 0.0
2018-Apr-11 00:27N 29°45' W 095°17'0 0.0
2018-Apr-10 23:57N 29°45' W 095°17'0 0.0
2018-Apr-10 23:21N 29°45' W 095°17'0 0.0
2018-Apr-10 22:54N 29°45' W 095°17'0 0.0
2018-Apr-10 22:30N 29°45' W 095°17'0 0.0
2018-Apr-10 22:00N 29°45' W 095°17'0 0.0
2018-Apr-10 21:27N 29°45' W 095°17'0 0.0
2018-Apr-10 21:00N 29°45' W 095°17'0 0.0
2018-Apr-10 20:30N 29°45' W 095°17'0 0.0
2018-Apr-10 19:57N 29°45' W 095°17'0 0.0
2018-Apr-10 19:24N 29°45' W 095°17'0 0.0
2018-Apr-10 18:57N 29°45' W 095°17'0 0.0
2018-Apr-10 18:30N 29°45' W 095°17'0 0.0
2018-Apr-10 17:54N 29°45' W 095°17'0 0.0
2018-Apr-10 17:21N 29°45' W 095°17'0 0.0
2018-Apr-10 16:48N 29°45' W 095°17'0 0.0
2018-Apr-10 16:30N 29°45' W 095°17'0 0.0
2018-Apr-10 16:00N 29°45' W 095°17'0 0.0
2018-Apr-10 15:27N 29°45' W 095°17'0 0.0
2018-Apr-10 15:00N 29°45' W 095°17'  
Track history (hours):
 
Tides and Currents Weather Stations Pressure Air Temp Water Temp Dewpoint Dewpoint Depression Visibility Wind Speed Wind Dir Waves Ship Positions

Atb Corpus Christi

Owner: US Shipping Corp, EDISON, NJ. More information available from US FCC via Universal Licensing System and Coast Guard Vessel Documentation Center.

Last reported at 2018-Apr-20 14:30 UTC. Time now 2018-Apr-20 14:43 UTC.
Position N 25°60' W 080°00'.

Length 184 m; draft 6.7 m.

Type: Towing. MMSI: 367362010.

Date/timePositionNaut miles runAvg speedWind from/ knotsBaromVisibWave heightAir tempDewpointWater temp
2018-Apr-20 14:30N 25°60' W 080°00'5 9.9
2018-Apr-20 14:00N 26°05' W 080°02'4 9.1
2018-Apr-20 13:30N 26°06' W 080°07'0 0.9
2018-Apr-20 12:59N 26°06' W 080°07'0 0.0
2018-Apr-20 12:29N 26°06' W 080°07'0 0.0
2018-Apr-20 11:59N 26°06' W 080°07'0 0.0
2018-Apr-20 11:29N 26°06' W 080°07'0 0.0
2018-Apr-20 10:59N 26°06' W 080°07'0 0.0
2018-Apr-20 10:29N 26°06' W 080°07'0 0.0
2018-Apr-20 09:59N 26°06' W 080°07'0 0.0
2018-Apr-20 09:29N 26°06' W 080°07'0 0.0
2018-Apr-20 08:59N 26°06' W 080°07'0 0.0
2018-Apr-20 08:29N 26°06' W 080°07'0 0.0
2018-Apr-20 07:59N 26°06' W 080°07'0 0.0
2018-Apr-20 07:29N 26°06' W 080°07'0 0.0
2018-Apr-20 06:59N 26°06' W 080°07'0 0.0
2018-Apr-20 06:29N 26°06' W 080°07'0 0.0
2018-Apr-20 05:56N 26°06' W 080°07'0 0.0
2018-Apr-20 05:29N 26°06' W 080°07'0 0.0
2018-Apr-20 04:59N 26°06' W 080°07'0 0.0
2018-Apr-20 04:29N 26°06' W 080°07'0 0.0
2018-Apr-20 03:59N 26°06' W 080°07'0 0.0
2018-Apr-20 03:26N 26°06' W 080°07'0 0.0
2018-Apr-20 02:59N 26°06' W 080°07'0 0.0
2018-Apr-20 02:29N 26°06' W 080°07'0 0.0
2018-Apr-20 01:59N 26°06' W 080°07'0 0.0
2018-Apr-20 01:29N 26°06' W 080°07'0 0.0
2018-Apr-20 00:59N 26°06' W 080°07'0 0.0
2018-Apr-20 00:29N 26°06' W 080°07'0 0.0
2018-Apr-19 23:59N 26°06' W 080°07'0 0.0
2018-Apr-19 23:29N 26°06' W 080°07'0 0.0
2018-Apr-19 22:59N 26°06' W 080°07'0 0.0
2018-Apr-19 22:29N 26°06' W 080°07'0 0.0
2018-Apr-19 21:59N 26°06' W 080°07'0 0.0
2018-Apr-19 21:29N 26°06' W 080°07'0 0.0
2018-Apr-19 20:59N 26°06' W 080°07'0 0.0
2018-Apr-19 20:29N 26°06' W 080°07'0 0.0
2018-Apr-19 19:59N 26°06' W 080°07'0 0.0
2018-Apr-19 19:29N 26°06' W 080°07'0 0.0
2018-Apr-19 18:59N 26°06' W 080°07'0 0.0
2018-Apr-19 18:29N 26°06' W 080°07'0 0.0
2018-Apr-19 17:59N 26°06' W 080°07'0 0.0
2018-Apr-19 17:29N 26°06' W 080°07'0 0.0
2018-Apr-19 16:59N 26°06' W 080°07'0 0.0
2018-Apr-19 16:29N 26°06' W 080°07'0 0.0
2018-Apr-19 15:59N 26°06' W 080°07'0 0.0
2018-Apr-19 15:29N 26°06' W 080°07'0 0.0
2018-Apr-19 14:59N 26°06' W 080°07'0 0.0
2018-Apr-19 14:29N 26°06' W 080°07'0 0.0
2018-Apr-19 13:59N 26°06' W 080°07'0 0.0
2018-Apr-19 13:29N 26°06' W 080°07'0 0.0
2018-Apr-19 12:59N 26°06' W 080°07'0 0.0
2018-Apr-19 12:29N 26°06' W 080°07'0 0.0
2018-Apr-19 11:59N 26°06' W 080°07'0 0.0
2018-Apr-19 11:29N 26°06' W 080°07'0 0.0
2018-Apr-19 10:59N 26°06' W 080°07'0 0.0
2018-Apr-19 10:29N 26°06' W 080°07'0 0.0
2018-Apr-19 09:59N 26°06' W 080°07'0 0.0
2018-Apr-19 09:29N 26°06' W 080°07'0 0.0
2018-Apr-19 08:59N 26°06' W 080°07'0 0.0
2018-Apr-19 08:29N 26°06' W 080°07'0 0.0
2018-Apr-19 07:59N 26°06' W 080°07'0 0.0
2018-Apr-19 07:29N 26°06' W 080°07'0 0.0
2018-Apr-19 06:59N 26°06' W 080°07'0 0.0
2018-Apr-19 06:29N 26°06' W 080°07'0 0.0
2018-Apr-19 05:59N 26°06' W 080°07'0 0.0
2018-Apr-19 05:29N 26°06' W 080°07'0 0.0
2018-Apr-19 05:00N 26°06' W 080°07'0 0.5
2018-Apr-19 04:30N 26°06' W 080°07'3 5.9
2018-Apr-19 04:00N 26°06' W 080°04'1 2.0
2018-Apr-19 03:30N 26°07' W 080°03'0 0.8
2018-Apr-19 03:00N 26°08' W 080°04'1 2.4
2018-Apr-19 02:30N 26°08' W 080°05'0 0.0
2018-Apr-19 01:59N 26°08' W 080°05'0 0.0
2018-Apr-19 01:29N 26°08' W 080°05'0 0.1
2018-Apr-19 00:59N 26°08' W 080°05'0 0.0
2018-Apr-19 00:29N 26°08' W 080°05'0 0.0
2018-Apr-18 23:59N 26°08' W 080°05'0 0.1
2018-Apr-18 23:29N 26°08' W 080°04'0 0.0
2018-Apr-18 22:59N 26°08' W 080°04'0 0.1
2018-Apr-18 22:20N 26°08' W 080°05'0 0.2
2018-Apr-18 21:59N 26°08' W 080°05'0 0.1
2018-Apr-18 21:26N 26°08' W 080°04'0 0.0
2018-Apr-18 20:53N 26°08' W 080°04'0 0.0
2018-Apr-18 20:20N 26°08' W 080°04'0 0.0
2018-Apr-18 19:59N 26°08' W 080°04'0 0.0
2018-Apr-18 19:29N 26°08' W 080°04'0 0.1
2018-Apr-18 18:59N 26°08' W 080°05'0 0.0
2018-Apr-18 18:29N 26°08' W 080°05'0 0.0
2018-Apr-18 17:56N 26°08' W 080°05'0 0.0
2018-Apr-18 17:23N 26°08' W 080°05'0 0.0
2018-Apr-18 16:56N 26°08' W 080°05'0 0.0
2018-Apr-18 16:26N 26°08' W 080°05'0 0.0
2018-Apr-18 15:56N 26°08' W 080°05'0 0.0
2018-Apr-18 15:26N 26°08' W 080°05'0 0.0
2018-Apr-18 14:56N 26°08' W 080°04'0 0.0
2018-Apr-18 14:23N 26°08' W 080°04'0 0.0
2018-Apr-18 13:59N 26°08' W 080°04'0 0.0
2018-Apr-18 13:26N 26°08' W 080°04'0 0.0
2018-Apr-18 12:59N 26°08' W 080°04'0 0.0
2018-Apr-18 11:32N 26°08' W 080°04'0 0.0
2018-Apr-18 11:17N 26°08' W 080°04'0 0.0
2018-Apr-18 10:59N 26°08' W 080°04'0 0.0
2018-Apr-18 10:29N 26°08' W 080°04'0 0.0
2018-Apr-18 09:59N 26°08' W 080°04'0 0.0
2018-Apr-18 09:20N 26°08' W 080°04'0 0.0
2018-Apr-18 08:47N 26°08' W 080°04'0 0.0
2018-Apr-18 08:23N 26°08' W 080°04'0 0.0
2018-Apr-18 07:47N 26°08' W 080°04'0 0.0
2018-Apr-18 07:20N 26°08' W 080°04'0 0.0
2018-Apr-18 06:59N 26°08' W 080°04'0 0.0
2018-Apr-18 06:23N 26°08' W 080°04'0 0.0
2018-Apr-18 05:53N 26°08' W 080°04'0 0.0
2018-Apr-18 04:50N 26°08' W 080°04'0 0.2
2018-Apr-18 04:23N 26°08' W 080°04'0 0.2
2018-Apr-18 03:56N 26°08' W 080°04'0 0.1
2018-Apr-18 03:26N 26°08' W 080°04'0 0.0
2018-Apr-18 02:56N 26°08' W 080°04'0 0.0
2018-Apr-18 02:29N 26°08' W 080°04'0 0.0
2018-Apr-18 01:59N 26°08' W 080°04'0 0.0
2018-Apr-18 01:29N 26°08' W 080°04'0 0.0
2018-Apr-18 00:59N 26°08' W 080°04'0 0.0
2018-Apr-18 00:29N 26°08' W 080°04'0 0.0
2018-Apr-17 23:59N 26°08' W 080°04'0 0.0
2018-Apr-17 23:29N 26°08' W 080°04'0 0.0
2018-Apr-17 22:59N 26°08' W 080°04'0 0.0
2018-Apr-17 22:29N 26°08' W 080°04'0 0.0
2018-Apr-17 21:59N 26°08' W 080°04'0 0.0
2018-Apr-17 21:17N 26°08' W 080°04'0 0.0
2018-Apr-17 20:59N 26°08' W 080°04'0 0.0
2018-Apr-17 20:29N 26°08' W 080°04'0 0.0
2018-Apr-17 19:59N 26°08' W 080°05'0 0.0
2018-Apr-17 19:29N 26°08' W 080°05'0 0.0
2018-Apr-17 18:54N 26°08' W 080°04'0 0.1
2018-Apr-17 18:30N 26°08' W 080°04'1 2.5
2018-Apr-17 18:00N 26°08' W 080°03'611.3
2018-Apr-17 17:30N 26°04' W 079°59'713.1
2018-Apr-17 17:00N 25°57' W 079°60'714.6
2018-Apr-17 16:30N 25°50' W 080°00'714.8
2018-Apr-17 16:00N 25°43' W 080°00'714.9
2018-Apr-17 15:31N 25°35' W 079°60'714.9
2018-Apr-17 15:00N 25°28' W 079°60'714.4
2018-Apr-17 14:29N 25°20' W 080°01'  
2018-Apr-14 12:42N 29°11' W 093°41'811.8
2018-Apr-14 12:04N 29°18' W 093°40'612.0
2018-Apr-14 11:36N 29°24' W 093°40'212.0
2018-Apr-14 11:28N 29°26' W 093°40'510.9
2018-Apr-14 11:00N 29°30' W 093°42'510.5
2018-Apr-14 10:30N 29°35' W 093°45'2 4.3
2018-Apr-14 10:00N 29°35' W 093°48'510.8
2018-Apr-14 09:30N 29°40' W 093°50'5 9.4
2018-Apr-14 09:00N 29°44' W 093°53'4 8.6
2018-Apr-14 08:30N 29°47' W 093°57'3 6.7
2018-Apr-14 08:00N 29°50' W 093°58'1 1.6
2018-Apr-14 07:30N 29°51' W 093°58'0 0.0
2018-Apr-14 07:00N 29°51' W 093°58'0 0.0
2018-Apr-14 06:30N 29°51' W 093°58'0 0.0
2018-Apr-14 06:00N 29°51' W 093°58'0 0.0
2018-Apr-14 05:30N 29°51' W 093°58'0 0.0
2018-Apr-14 05:00N 29°51' W 093°58'0 0.0
2018-Apr-14 04:30N 29°51' W 093°58'0 0.0
2018-Apr-14 04:00N 29°51' W 093°58'0 0.0
2018-Apr-14 03:27N 29°51' W 093°58'0 0.0
2018-Apr-14 02:59N 29°51' W 093°58'0 0.0
2018-Apr-14 02:29N 29°51' W 093°58'0 0.0
2018-Apr-14 01:59N 29°51' W 093°58'0 0.0
2018-Apr-14 01:29N 29°51' W 093°58'0 0.0
2018-Apr-14 00:59N 29°51' W 093°58'0 0.0
2018-Apr-14 00:29N 29°51' W 093°58'0 0.0
2018-Apr-13 23:59N 29°51' W 093°58'0 0.0
2018-Apr-13 23:29N 29°51' W 093°58'0 0.0
2018-Apr-13 22:59N 29°51' W 093°58'0 0.0
2018-Apr-13 22:29N 29°51' W 093°58'0 0.0
2018-Apr-13 21:59N 29°51' W 093°58'0 0.0
2018-Apr-13 21:29N 29°51' W 093°58'0 0.0
2018-Apr-13 20:59N 29°51' W 093°58'0 0.0
2018-Apr-13 20:29N 29°51' W 093°58'0 0.0
2018-Apr-13 19:59N 29°51' W 093°58'0 0.0
2018-Apr-13 19:29N 29°51' W 093°58'0 0.0
2018-Apr-13 18:59N 29°51' W 093°58'0 0.0
2018-Apr-13 18:29N 29°51' W 093°58'0 0.0
2018-Apr-13 17:59N 29°51' W 093°58'0 0.0
2018-Apr-13 17:29N 29°51' W 093°58'0 0.0
2018-Apr-13 16:59N 29°51' W 093°58'0 0.0
2018-Apr-13 16:29N 29°51' W 093°58'0 0.0
2018-Apr-13 15:59N 29°51' W 093°58'0 0.0
2018-Apr-13 15:29N 29°51' W 093°58'0 0.0
2018-Apr-13 14:59N 29°51' W 093°58'0 0.0
2018-Apr-13 14:29N 29°51' W 093°58'0 0.0
2018-Apr-13 13:59N 29°51' W 093°58'0 0.0
2018-Apr-13 13:29N 29°51' W 093°58'0 0.0
2018-Apr-13 12:59N 29°51' W 093°58'0 0.0
2018-Apr-13 12:29N 29°51' W 093°58'0 0.0
2018-Apr-13 11:59N 29°51' W 093°58'0 0.0
2018-Apr-13 11:29N 29°51' W 093°58'0 0.0
2018-Apr-13 10:59N 29°51' W 093°58'0 0.0
2018-Apr-13 10:29N 29°51' W 093°58'0 0.0
2018-Apr-13 09:59N 29°51' W 093°58'0 0.0
2018-Apr-13 09:29N 29°51' W 093°58'0 0.0
2018-Apr-13 08:59N 29°51' W 093°58'0 0.0
2018-Apr-13 08:29N 29°51' W 093°58'0 0.0
2018-Apr-13 07:59N 29°51' W 093°58'0 0.0
2018-Apr-13 07:29N 29°51' W 093°58'0 0.0
2018-Apr-13 06:56N 29°51' W 093°58'0 0.0
2018-Apr-13 06:29N 29°51' W 093°58'0 0.0
2018-Apr-13 05:59N 29°51' W 093°58'0 0.0
2018-Apr-13 05:29N 29°51' W 093°58'0 0.0
2018-Apr-13 04:59N 29°51' W 093°58'0 0.0
2018-Apr-13 04:29N 29°51' W 093°58'0 0.0
2018-Apr-13 03:59N 29°51' W 093°58'0 0.0
2018-Apr-13 03:29N 29°51' W 093°58'0 0.0
2018-Apr-13 02:59N 29°51' W 093°58'0 0.0
2018-Apr-13 02:30N 29°51' W 093°58'1 1.4
2018-Apr-13 02:00N 29°50' W 093°58'4 7.8
2018-Apr-13 01:30N 29°47' W 093°56'5 9.1
2018-Apr-13 01:00N 29°44' W 093°52'5 9.8
2018-Apr-13 00:30N 29°39' W 093°50'510.0
2018-Apr-13 00:01N 29°35' W 093°47'4 7.7
2018-Apr-12 23:30N 29°34' W 093°43'3 5.8
2018-Apr-12 23:00N 29°32' W 093°45'611.3
2018-Apr-12 22:30N 29°30' W 093°51'611.3
2018-Apr-12 22:00N 29°29' W 093°57'611.2
2018-Apr-12 21:30N 29°25' W 094°02'611.4
2018-Apr-12 21:00N 29°21' W 094°07'611.4
2018-Apr-12 20:30N 29°17' W 094°12'611.6
2018-Apr-12 20:00N 29°13' W 094°17'611.7
2018-Apr-12 19:27N 29°10' W 094°23'1010.7
2018-Apr-12 18:32N 29°14' W 094°33'311.9
2018-Apr-12 18:19N 29°15' W 094°35'410.9
2018-Apr-12 17:59N 29°18' W 094°37'611.2
2018-Apr-12 17:28N 29°21' W 094°43'1 1.1
2018-Apr-12 16:13N 29°21' W 094°45'0 0.1
2018-Apr-12 15:49N 29°21' W 094°45'0 0.0
2018-Apr-12 15:25N 29°21' W 094°45'0 0.0
2018-Apr-12 14:58N 29°21' W 094°45'0 0.0
2018-Apr-12 12:37N 29°21' W 094°45'0 0.0
2018-Apr-12 12:28N 29°21' W 094°45'0 0.0
2018-Apr-12 10:55N 29°21' W 094°45'0 0.0
2018-Apr-12 09:46N 29°21' W 094°45'0 0.0
2018-Apr-12 09:10N 29°21' W 094°45'0 0.0
2018-Apr-12 08:49N 29°21' W 094°45'0 0.0
2018-Apr-12 08:30N 29°21' W 094°45'0 0.2
2018-Apr-12 08:00N 29°21' W 094°45'0 0.2
2018-Apr-12 07:28N 29°21' W 094°45'0 0.2
2018-Apr-12 07:00N 29°21' W 094°45'2 4.6
2018-Apr-12 06:30N 29°22' W 094°48'5 9.8
2018-Apr-12 06:00N 29°26' W 094°50'611.3
2018-Apr-12 05:31N 29°31' W 094°53'611.3
2018-Apr-12 05:00N 29°36' W 094°57'611.2
2018-Apr-12 04:30N 29°41' W 094°59'4 8.4
2018-Apr-12 04:00N 29°44' W 095°02'3 6.6
2018-Apr-12 03:30N 29°45' W 095°06'3 6.6
2018-Apr-12 03:00N 29°44' W 095°09'3 5.4
2018-Apr-12 02:28N 29°44' W 095°13'2 5.1
2018-Apr-12 02:00N 29°44' W 095°15'2 3.6
2018-Apr-12 01:30N 29°45' W 095°17'0 0.0
2018-Apr-12 01:00N 29°45' W 095°17'0 0.0
2018-Apr-12 00:27N 29°45' W 095°17'0 0.0
2018-Apr-11 23:54N 29°45' W 095°17'0 0.0
2018-Apr-11 23:21N 29°45' W 095°17'0 0.0
2018-Apr-11 22:48N 29°45' W 095°17'0 0.0
2018-Apr-11 22:15N 29°45' W 095°17'0 0.0
2018-Apr-11 22:00N 29°45' W 095°17'0 0.0
2018-Apr-11 21:27N 29°45' W 095°17'0 0.0
2018-Apr-11 21:00N 29°45' W 095°17'0 0.0
2018-Apr-11 20:30N 29°45' W 095°17'0 0.0
2018-Apr-11 19:57N 29°45' W 095°17'0 0.0
2018-Apr-11 19:30N 29°45' W 095°17'0 0.0
2018-Apr-11 18:57N 29°45' W 095°17'0 0.0
2018-Apr-11 18:27N 29°45' W 095°17'0 0.0
2018-Apr-11 18:00N 29°45' W 095°17'0 0.0
2018-Apr-11 17:30N 29°45' W 095°17'0 0.0
2018-Apr-11 17:00N 29°45' W 095°17'0 0.0
2018-Apr-11 16:30N 29°45' W 095°17'0 0.0
2018-Apr-11 15:57N 29°45' W 095°17'0 0.0
2018-Apr-11 15:30N 29°45' W 095°17'0 0.0
2018-Apr-11 14:57N 29°45' W 095°17'0 0.0
2018-Apr-11 14:12N 29°45' W 095°17'0 0.0
2018-Apr-11 13:54N 29°45' W 095°17'0 0.0
2018-Apr-11 13:27N 29°45' W 095°17'0 0.0
2018-Apr-11 13:00N 29°45' W 095°17'0 0.0
2018-Apr-11 12:30N 29°45' W 095°17'0 0.0
2018-Apr-11 10:18N 29°45' W 095°17'0 0.0
2018-Apr-11 09:45N 29°45' W 095°17'0 0.0
2018-Apr-11 09:30N 29°45' W 095°17'0 0.0
2018-Apr-11 09:00N 29°45' W 095°17'0 0.0
2018-Apr-11 08:15N 29°45' W 095°17'0 0.0
2018-Apr-11 07:57N 29°45' W 095°17'0 0.0
2018-Apr-11 07:18N 29°45' W 095°17'0 0.0
2018-Apr-11 07:00N 29°45' W 095°17'0 0.0
2018-Apr-11 06:24N 29°45' W 095°17'0 0.0
2018-Apr-11 06:00N 29°45' W 095°17'0 0.0
2018-Apr-11 04:39N 29°45' W 095°17'0 0.0
2018-Apr-11 04:24N 29°45' W 095°17'0 0.0
2018-Apr-11 03:51N 29°45' W 095°17'0 0.0
2018-Apr-11 03:21N 29°45' W 095°17'0 0.0
2018-Apr-11 02:57N 29°45' W 095°17'0 0.0
2018-Apr-11 02:27N 29°45' W 095°17'0 0.0
2018-Apr-11 01:15N 29°45' W 095°17'0 0.0
2018-Apr-11 00:45N 29°45' W 095°17'0 0.0
2018-Apr-11 00:27N 29°45' W 095°17'0 0.0
2018-Apr-10 23:57N 29°45' W 095°17'0 0.0
2018-Apr-10 23:21N 29°45' W 095°17'0 0.0
2018-Apr-10 22:54N 29°45' W 095°17'0 0.0
2018-Apr-10 22:30N 29°45' W 095°17'0 0.0
2018-Apr-10 22:00N 29°45' W 095°17'0 0.0
2018-Apr-10 21:27N 29°45' W 095°17'0 0.0
2018-Apr-10 21:00N 29°45' W 095°17'0 0.0
2018-Apr-10 20:30N 29°45' W 095°17'0 0.0
2018-Apr-10 19:57N 29°45' W 095°17'0 0.0
2018-Apr-10 19:24N 29°45' W 095°17'0 0.0
2018-Apr-10 18:57N 29°45' W 095°17'0 0.0
2018-Apr-10 18:30N 29°45' W 095°17'0 0.0
2018-Apr-10 17:54N 29°45' W 095°17'0 0.0
2018-Apr-10 17:21N 29°45' W 095°17'0 0.0
2018-Apr-10 16:48N 29°45' W 095°17'0 0.0
2018-Apr-10 16:30N 29°45' W 095°17'0 0.0
2018-Apr-10 16:00N 29°45' W 095°17'0 0.0
2018-Apr-10 15:27N 29°45' W 095°17'0 0.0
2018-Apr-10 15:00N 29°45' W 095°17'  

Dump ship's entire track history